createdAt,value
2022-09-12T00:01:49.604Z,101342.19
2022-09-12T00:04:13.182Z,101338.31
2022-09-12T00:06:38.675Z,101340.16
2022-09-12T00:09:08.347Z,101336.16
2022-09-12T00:11:32.267Z,101337.88
2022-09-12T00:13:58.367Z,101334.72
2022-09-12T00:16:25.544Z,101334.09
2022-09-12T00:18:49.741Z,101335.09
2022-09-12T00:21:13.947Z,101334.38
2022-09-12T00:23:37.477Z,101337.22
2022-09-12T00:26:05.858Z,101331.47
2022-09-12T00:28:29.380Z,101337.53
2022-09-12T00:30:52.982Z,101335.81
2022-09-12T00:33:19.000Z,101330.66
2022-09-12T00:35:44.634Z,101332.91
2022-09-12T00:38:08.176Z,101328.63
2022-09-12T00:40:31.754Z,101334.41
2022-09-12T00:42:56.663Z,101332.09
2022-09-12T00:45:26.023Z,101331.22
2022-09-12T00:47:49.623Z,101328.94
2022-09-12T00:50:16.358Z,101335.19
2022-09-12T00:52:46.159Z,101332.88
2022-09-12T00:55:14.736Z,101325.91
2022-09-12T00:57:46.150Z,101327.25
2022-09-12T01:00:16.162Z,101322.13
2022-09-12T01:02:39.996Z,101328.63
2022-09-12T01:05:03.649Z,101326.31
2022-09-12T01:07:27.806Z,101330.00
2022-09-12T01:09:51.563Z,101325.84
2022-09-12T01:12:16.872Z,101328.78
2022-09-12T01:14:41.131Z,101317.47
2022-09-12T01:17:06.214Z,101327.06
2022-09-12T01:20:24.050Z,101328.78
2022-09-12T01:23:41.783Z,101323.16
2022-09-12T01:26:39.685Z,101325.63
2022-09-12T01:29:31.620Z,101331.53
2022-09-12T01:32:06.801Z,101324.41
2022-09-12T01:34:44.447Z,101323.53
2022-09-12T01:37:16.538Z,101323.06
2022-09-12T01:39:54.766Z,101317.19
2022-09-12T01:42:25.923Z,101315.22
2022-09-12T01:44:56.530Z,101314.22
2022-09-12T01:47:30.830Z,101313.53
2022-09-12T01:50:03.106Z,101315.97
2022-09-12T01:52:31.790Z,101316.69
2022-09-12T01:55:02.105Z,101311.44
2022-09-12T01:57:33.388Z,101311.69
2022-09-12T02:00:01.916Z,101311.94
2022-09-12T02:02:34.916Z,101311.47
2022-09-12T02:05:03.922Z,101314.53
2022-09-12T02:07:32.883Z,101313.78
2022-09-12T02:10:01.549Z,101315.84
2022-09-12T02:12:33.135Z,101314.53
2022-09-12T02:15:03.928Z,101317.47
2022-09-12T02:17:31.258Z,101315.88
2022-09-12T02:20:00.281Z,101319.16
2022-09-12T02:22:27.203Z,101319.28
2022-09-12T02:24:56.303Z,101315.03
2022-09-12T02:27:25.243Z,101310.47
2022-09-12T02:29:49.928Z,101313.66
2022-09-12T02:32:26.570Z,101308.03
2022-09-12T02:34:59.661Z,101309.97
2022-09-12T02:37:35.463Z,101316.34
2022-09-12T02:40:00.378Z,101313.91
2022-09-12T02:42:24.731Z,101315.38
2022-09-12T02:44:48.482Z,101305.59
2022-09-12T02:47:18.354Z,101305.22
2022-09-12T02:49:41.978Z,101305.47
2022-09-12T02:52:07.118Z,101308.88
2022-09-12T02:54:31.818Z,101310.84
2022-09-12T02:56:55.557Z,101309.38
2022-09-12T02:59:22.604Z,101315.34
2022-09-12T03:02:07.605Z,101307.06
2022-09-12T03:04:48.943Z,101314.25
2022-09-12T03:07:22.961Z,101314.50
2022-09-12T03:09:51.290Z,101312.94
2022-09-12T03:12:30.358Z,101312.31
2022-09-12T03:15:10.944Z,101317.31
2022-09-12T03:17:50.676Z,101315.66
2022-09-12T03:20:18.060Z,101314.47
2022-09-12T03:22:54.061Z,101316.69
2022-09-12T03:25:22.765Z,101311.53
2022-09-12T03:27:55.284Z,101317.91
2022-09-12T03:30:19.306Z,101306.41
2022-09-12T03:32:45.167Z,101305.44
2022-09-12T03:35:09.626Z,101319.72
2022-09-12T03:37:33.189Z,101307.03
2022-09-12T03:39:58.265Z,101315.09
2022-09-12T03:42:21.873Z,101322.66
2022-09-12T03:44:45.521Z,101315.56
2022-09-12T03:47:11.276Z,101315.31
2022-09-12T03:49:35.114Z,101323.25
2022-09-12T03:51:58.601Z,101319.97
2022-09-12T03:54:22.162Z,101328.41
2022-09-12T03:56:47.055Z,101333.53
2022-09-12T03:59:10.776Z,101331.81
2022-09-12T04:01:34.943Z,101333.75
2022-09-12T04:03:58.567Z,101331.06
2022-09-12T04:06:24.110Z,101332.03
2022-09-12T04:08:50.779Z,101329.06
2022-09-12T04:11:16.679Z,101319.53
2022-09-12T04:13:43.722Z,101323.81
2022-09-12T04:16:07.883Z,101328.72
2022-09-12T04:18:32.146Z,101321.25
2022-09-12T04:20:55.770Z,101319.53
2022-09-12T04:23:19.755Z,101325.13
2022-09-12T04:25:43.277Z,101322.75
2022-09-12T04:28:06.855Z,101324.38
2022-09-12T04:30:31.813Z,101323.09
2022-09-12T04:32:55.425Z,101320.66
2022-09-12T04:35:19.016Z,101323.09
2022-09-12T04:37:42.625Z,101328.25
2022-09-12T04:40:07.411Z,101319.16
2022-09-12T04:42:31.595Z,101324.47
2022-09-12T04:44:55.107Z,101327.41
2022-09-12T04:47:20.090Z,101326.53
2022-09-12T04:49:43.655Z,101323.84
2022-09-12T04:52:08.114Z,101328.38
2022-09-12T04:54:31.657Z,101325.03
2022-09-12T04:56:56.027Z,101323.97
2022-09-12T04:59:21.570Z,101328.59
2022-09-12T05:01:45.271Z,101336.44
2022-09-12T05:04:12.023Z,101333.13
2022-09-12T05:06:38.314Z,101334.72
2022-09-12T05:09:03.531Z,101326.84
2022-09-12T05:11:46.929Z,101327.06
2022-09-12T05:14:13.464Z,101324.38
2022-09-12T05:16:37.006Z,101323.19
2022-09-12T05:19:01.302Z,101324.16
2022-09-12T05:21:27.664Z,101325.13
2022-09-12T05:23:53.115Z,101328.56
2022-09-12T05:26:19.179Z,101335.41
2022-09-12T05:28:43.744Z,101326.63
2022-09-12T05:31:10.523Z,101327.75
2022-09-12T05:33:35.222Z,101336.97
2022-09-12T05:35:58.903Z,101336.63
2022-09-12T05:38:24.975Z,101333.06
2022-09-12T05:40:48.519Z,101341.88
2022-09-12T05:43:12.522Z,101343.13
2022-09-12T05:45:36.123Z,101346.06
2022-09-12T05:47:59.675Z,101347.53
2022-09-12T05:50:23.343Z,101339.00
2022-09-12T05:52:47.130Z,101347.97
2022-09-12T05:55:12.248Z,101345.00
2022-09-12T05:57:36.474Z,101343.28
2022-09-12T05:59:59.999Z,101352.00
2022-09-12T06:02:23.711Z,101345.59
2022-09-12T06:04:47.302Z,101355.63
2022-09-12T06:07:11.013Z,101359.13
2022-09-12T06:09:34.540Z,101358.63
2022-09-12T06:11:59.503Z,101347.78
2022-09-12T06:14:23.244Z,101355.22
2022-09-12T06:16:47.488Z,101354.19
2022-09-12T06:19:16.576Z,101358.44
2022-09-12T06:21:40.138Z,101370.88
2022-09-12T06:24:03.906Z,101367.13
2022-09-12T06:26:29.273Z,101368.97
2022-09-12T06:28:56.639Z,101368.34
2022-09-12T06:31:23.146Z,101374.94
2022-09-12T06:33:49.371Z,101372.25
2022-09-12T06:36:16.096Z,101370.84
2022-09-12T06:38:40.101Z,101369.91
2022-09-12T06:41:06.751Z,101379.06
2022-09-12T06:43:30.711Z,101367.84
2022-09-12T06:45:56.330Z,101380.31
2022-09-12T06:48:20.153Z,101376.13
2022-09-12T06:50:43.992Z,101373.66
2022-09-12T06:53:07.515Z,101373.03
2022-09-12T06:55:31.136Z,101371.44
2022-09-12T06:57:55.798Z,101371.31
2022-09-12T07:00:19.627Z,101374.41
2022-09-12T07:02:44.539Z,101367.13
2022-09-12T07:05:09.446Z,101364.81
2022-09-12T07:07:34.422Z,101364.28
2022-09-12T07:09:58.479Z,101365.94
2022-09-12T07:12:21.999Z,101356.66
2022-09-12T07:14:45.603Z,101359.28
2022-09-12T07:17:09.813Z,101359.63
2022-09-12T07:19:34.987Z,101357.41
2022-09-12T07:21:58.854Z,101365.13
2022-09-12T07:24:22.520Z,101356.44
2022-09-12T07:26:46.063Z,101364.25
2022-09-12T07:29:35.772Z,101360.16
2022-09-12T07:32:01.412Z,101364.59
2022-09-12T07:34:24.919Z,101354.91
2022-09-12T07:36:49.876Z,101360.53
2022-09-12T07:39:13.477Z,101364.97
2022-09-12T07:41:37.140Z,101363.22
2022-09-12T07:44:03.056Z,101358.78
2022-09-12T07:46:28.015Z,101364.91
2022-09-12T07:48:52.494Z,101358.09
2022-09-12T07:51:16.051Z,101368.56
2022-09-12T07:53:43.400Z,101363.06
2022-09-12T07:56:08.435Z,101363.84
2022-09-12T07:58:33.226Z,101362.09
2022-09-12T08:01:03.224Z,101366.91
2022-09-12T08:03:26.839Z,101361.84
2022-09-12T08:05:50.380Z,101365.44
2022-09-12T08:08:13.967Z,101362.03
2022-09-12T08:10:38.921Z,101362.47
2022-09-12T08:13:03.096Z,101368.63
2022-09-12T08:15:26.686Z,101371.66
2022-09-12T08:17:50.215Z,101375.50
2022-09-12T08:20:13.910Z,101377.53
2022-09-12T08:22:37.451Z,101376.69
2022-09-12T08:25:00.975Z,101372.69
2022-09-12T08:27:25.973Z,101372.50
2022-09-12T08:29:49.491Z,101368.78
2022-09-12T08:32:13.043Z,101365.03
2022-09-12T08:34:36.594Z,101372.53
2022-09-12T08:37:00.171Z,101371.78
2022-09-12T08:39:24.656Z,101370.16
2022-09-12T08:41:50.110Z,101378.44
2022-09-12T08:44:52.154Z,101372.59
2022-09-12T08:47:25.278Z,101370.66
2022-09-12T08:50:00.706Z,101367.91
2022-09-12T08:52:32.002Z,101360.63
2022-09-12T08:54:56.516Z,101367.72
2022-09-12T08:57:20.411Z,101371.28
2022-09-12T08:59:48.323Z,101367.72
2022-09-12T09:02:38.955Z,101362.03
2022-09-12T09:05:16.354Z,101359.00
2022-09-12T09:08:24.059Z,101363.03
2022-09-12T09:10:53.633Z,101359.25
2022-09-12T09:13:51.846Z,101355.75
2022-09-12T09:16:26.898Z,101350.47
2022-09-12T09:18:52.559Z,101356.44
2022-09-12T09:21:25.311Z,101356.44
2022-09-12T09:23:54.988Z,101355.06
2022-09-12T09:26:26.733Z,101349.63
2022-09-12T09:28:55.602Z,101348.91
2022-09-12T09:31:23.494Z,101355.03
2022-09-12T09:33:51.939Z,101346.19
2022-09-12T09:36:23.978Z,101345.72
2022-09-12T09:38:51.394Z,101341.06
2022-09-12T09:41:36.118Z,101338.25
2022-09-12T09:44:01.025Z,101341.25
2022-09-12T09:46:26.396Z,101343.66
2022-09-12T09:48:51.879Z,101342.66
2022-09-12T09:51:19.036Z,101342.78
2022-09-12T09:53:50.025Z,101342.50
2022-09-12T09:56:30.602Z,101340.78
2022-09-12T09:58:54.300Z,101343.91
2022-09-12T10:01:20.031Z,101337.28
2022-09-12T10:03:51.253Z,101337.63
2022-09-12T10:06:42.178Z,101338.28
2022-09-12T10:09:18.934Z,101334.34
2022-09-12T10:11:45.930Z,101326.41
2022-09-12T10:14:31.539Z,101334.50
2022-09-12T10:16:55.335Z,101329.78
2022-09-12T10:19:25.087Z,101323.81
2022-09-12T10:21:52.867Z,101319.22
2022-09-12T10:24:24.893Z,101322.13
2022-09-12T10:26:56.743Z,101314.19
2022-09-12T10:29:28.032Z,101316.50
2022-09-12T10:31:55.546Z,101320.03
2022-09-12T10:34:33.538Z,101326.28
2022-09-12T10:37:04.286Z,101313.34
2022-09-12T10:39:28.352Z,101316.31
2022-09-12T10:41:51.924Z,101312.34
2022-09-12T10:44:18.827Z,101316.41
2022-09-12T10:46:42.395Z,101305.75
2022-09-12T10:49:28.043Z,101316.34
2022-09-12T10:51:51.958Z,101315.06
2022-09-12T10:54:20.998Z,101322.00
2022-09-12T10:56:59.491Z,101308.25
2022-09-12T10:59:35.191Z,101311.09
2022-09-12T11:02:02.913Z,101309.19
2022-09-12T11:04:43.241Z,101308.13
2022-09-12T11:07:44.987Z,101308.50
2022-09-12T11:10:27.295Z,101305.66
2022-09-12T11:12:59.840Z,101299.69
2022-09-12T11:15:38.635Z,101304.84
2022-09-12T11:18:12.255Z,101302.56
2022-09-12T11:20:55.092Z,101300.22
2022-09-12T11:23:48.506Z,101304.03
2022-09-12T11:26:28.368Z,101300.84
2022-09-12T11:29:05.862Z,101303.63
2022-09-12T11:32:16.355Z,101299.09
2022-09-12T11:34:58.346Z,101300.97
2022-09-12T11:37:44.736Z,101292.41
2022-09-12T11:40:28.912Z,101297.06
2022-09-12T11:42:57.558Z,101288.56
2022-09-12T11:45:28.131Z,101283.72
2022-09-12T11:47:56.858Z,101281.81
2022-09-12T11:50:27.714Z,101277.13
2022-09-12T11:52:53.963Z,101272.84
2022-09-12T11:55:21.162Z,101279.28
2022-09-12T11:57:49.188Z,101270.03
2022-09-12T12:00:20.181Z,101269.75
2022-09-12T12:02:55.418Z,101276.81
2022-09-12T12:05:24.139Z,101272.22
2022-09-12T12:07:56.319Z,101266.94
2022-09-12T12:10:27.068Z,101264.19
2022-09-12T12:12:51.847Z,101266.28
2022-09-12T12:15:17.775Z,101264.78
2022-09-12T12:17:41.478Z,101263.56
2022-09-12T12:20:09.439Z,101258.69
2022-09-12T12:22:33.762Z,101261.66
2022-09-12T12:25:39.118Z,101251.41
2022-09-12T12:28:05.480Z,101258.28
2022-09-12T12:31:03.389Z,101245.97
2022-09-12T12:34:15.282Z,101252.53
2022-09-12T12:36:42.440Z,101256.56
2022-09-12T12:40:03.081Z,101254.69
2022-09-12T12:43:05.463Z,101254.13
2022-09-12T12:46:14.604Z,101256.56
2022-09-12T12:49:12.690Z,101255.50
2022-09-12T12:51:58.099Z,101249.59
2022-09-12T12:54:54.281Z,101262.72
2022-09-12T12:57:24.539Z,101252.75
2022-09-12T12:59:53.439Z,101255.31
2022-09-12T13:02:24.487Z,101258.84
2022-09-12T13:04:49.751Z,101249.72
2022-09-12T13:07:29.421Z,101253.84
2022-09-12T13:09:54.542Z,101254.66
2022-09-12T13:12:23.256Z,101244.31
2022-09-12T13:14:55.564Z,101242.81
2022-09-12T13:17:29.888Z,101234.50
2022-09-12T13:20:24.122Z,101236.03
2022-09-12T13:22:48.378Z,101232.03
2022-09-12T13:25:26.628Z,101230.59
2022-09-12T13:28:18.537Z,101220.03
2022-09-12T13:30:47.256Z,101222.94
2022-09-12T13:33:22.885Z,101223.34
2022-09-12T13:36:32.004Z,101224.19
2022-09-12T13:39:16.531Z,101222.69
2022-09-12T13:42:28.176Z,101209.81
2022-09-12T13:44:55.747Z,101215.75
2022-09-12T13:47:31.708Z,101208.13
2022-09-12T13:49:56.355Z,101201.44
2022-09-12T13:52:25.682Z,101206.41
2022-09-12T13:54:54.769Z,101206.97
2022-09-12T13:57:37.701Z,101205.13
2022-09-12T14:00:06.342Z,101198.84
2022-09-12T14:02:31.528Z,101199.41
2022-09-12T14:05:13.601Z,101203.88
2022-09-12T14:07:55.286Z,101199.19
2022-09-12T14:10:28.189Z,101199.63
2022-09-12T14:12:52.894Z,101202.09
2022-09-12T14:15:24.533Z,101191.13
2022-09-12T14:17:54.815Z,101197.34
2022-09-12T14:20:19.916Z,101200.22
2022-09-12T14:22:45.589Z,101199.63
2022-09-12T14:25:17.104Z,101187.75
2022-09-12T14:27:45.800Z,101190.50
2022-09-12T14:30:23.809Z,101187.31
2022-09-12T14:33:06.847Z,101192.63
2022-09-12T14:35:30.584Z,101192.81
2022-09-12T14:37:54.179Z,101190.28
2022-09-12T14:40:21.952Z,101191.78
2022-09-12T14:42:46.802Z,101188.81
2022-09-12T14:45:18.288Z,101189.03
2022-09-12T14:47:44.455Z,101183.03
2022-09-12T14:50:19.561Z,101182.22
2022-09-12T14:52:44.749Z,101183.06
2022-09-12T14:55:33.857Z,101172.78
2022-09-12T14:58:18.076Z,101174.75
2022-09-12T15:00:59.595Z,101174.09
2022-09-12T15:03:29.890Z,101171.19
2022-09-12T15:05:55.232Z,101167.41
2022-09-12T15:08:18.833Z,101167.50
2022-09-12T15:10:42.433Z,101169.69
2022-09-12T15:13:23.952Z,101172.25
2022-09-12T15:15:51.188Z,101166.88
2022-09-12T15:18:14.986Z,101164.31
2022-09-12T15:20:40.160Z,101170.81
2022-09-12T15:23:06.063Z,101160.91
2022-09-12T15:25:29.670Z,101160.47
2022-09-12T15:27:56.066Z,101161.75
2022-09-12T15:30:19.765Z,101164.25
2022-09-12T15:32:45.907Z,101166.78
2022-09-12T15:35:13.535Z,101157.66
2022-09-12T15:37:37.084Z,101155.50
2022-09-12T15:40:02.706Z,101156.47
2022-09-12T15:42:31.399Z,101153.09
2022-09-12T15:44:58.394Z,101148.47
2022-09-12T15:47:24.216Z,101144.84
2022-09-12T15:49:47.740Z,101149.22
2022-09-12T15:52:16.664Z,101146.69
2022-09-12T15:54:41.082Z,101151.72
2022-09-12T15:57:06.412Z,101151.97
2022-09-12T15:59:31.105Z,101146.81
2022-09-12T16:01:54.688Z,101145.31
2022-09-12T16:04:23.831Z,101143.56
2022-09-12T16:06:47.378Z,101141.03
2022-09-12T16:09:16.062Z,101140.16
2022-09-12T16:11:40.329Z,101137.34
2022-09-12T16:14:06.713Z,101129.00
2022-09-12T16:16:30.234Z,101142.63
2022-09-12T16:18:53.887Z,101133.09
2022-09-12T16:21:17.525Z,101142.75
2022-09-12T16:23:43.508Z,101142.06
2022-09-12T16:26:08.302Z,101130.44
2022-09-12T16:28:33.275Z,101133.66
2022-09-12T16:30:58.882Z,101127.91
2022-09-12T16:33:22.444Z,101126.34
2022-09-12T16:35:45.963Z,101122.53
2022-09-12T16:38:09.528Z,101122.81
2022-09-12T16:40:33.050Z,101126.16
2022-09-12T16:42:56.600Z,101127.38
2022-09-12T16:47:45.050Z,101122.59
2022-09-12T16:50:09.971Z,101114.69
2022-09-12T16:52:35.111Z,101116.69
2022-09-12T16:54:58.720Z,101116.69
2022-09-12T16:57:22.882Z,101113.38
2022-09-12T16:59:46.494Z,101111.31
2022-09-12T17:02:12.695Z,101101.03
2022-09-12T17:04:37.610Z,101102.66
2022-09-12T17:07:01.126Z,101104.06
2022-09-12T17:09:24.774Z,101100.56
2022-09-12T17:11:50.209Z,101088.41
2022-09-12T17:14:13.802Z,101100.75
2022-09-12T17:16:39.669Z,101090.94
2022-09-12T17:19:03.563Z,101089.59
2022-09-12T17:21:28.656Z,101085.66
2022-09-12T17:23:52.300Z,101092.25
2022-09-12T17:26:16.195Z,101089.91
2022-09-12T17:28:40.907Z,101090.31
2022-09-12T17:31:07.196Z,101090.53
2022-09-12T17:33:32.086Z,101088.44
2022-09-12T17:35:56.384Z,101089.47
2022-09-12T17:38:25.252Z,101087.16
2022-09-12T17:40:59.400Z,101090.97
2022-09-12T17:43:23.243Z,101092.75
2022-09-12T17:45:46.782Z,101092.78
2022-09-12T17:48:12.689Z,101096.63
2022-09-12T17:50:39.381Z,101091.22
2022-09-12T17:53:03.347Z,101098.91
2022-09-12T17:55:32.074Z,101100.97
2022-09-12T17:57:55.901Z,101097.66
2022-09-12T18:00:40.528Z,101096.13
2022-09-12T18:03:03.129Z,101101.13
2022-09-12T18:05:26.703Z,101103.34
2022-09-12T18:07:50.259Z,101110.16
2022-09-12T18:10:13.873Z,101104.06
2022-09-12T18:12:38.879Z,101110.72
2022-09-12T18:15:02.404Z,101107.88
2022-09-12T18:17:25.992Z,101110.09
2022-09-12T18:19:53.476Z,101108.91
2022-09-12T18:22:17.431Z,101106.66
2022-09-12T18:24:41.344Z,101109.56
2022-09-12T18:27:05.243Z,101096.47
2022-09-12T18:29:30.161Z,101089.69
2022-09-12T18:31:53.763Z,101096.84
2022-09-12T18:34:18.431Z,101086.97
2022-09-12T18:36:42.235Z,101087.47
2022-09-12T18:39:05.844Z,101084.25
2022-09-12T18:41:29.967Z,101081.00
2022-09-12T18:43:56.655Z,101088.31
2022-09-12T18:46:21.963Z,101079.97
2022-09-12T18:48:46.714Z,101082.34
2022-09-12T18:51:14.711Z,101095.06
2022-09-12T18:53:38.965Z,101085.03
2022-09-12T18:56:04.688Z,101090.78
2022-09-12T18:58:28.330Z,101085.66
2022-09-12T19:00:51.976Z,101080.19
2022-09-12T19:03:16.939Z,101068.94
2022-09-12T19:05:40.703Z,101071.28
2022-09-12T19:08:04.922Z,101065.69
2022-09-12T19:10:28.466Z,101074.66
2022-09-12T19:12:51.984Z,101068.16
2022-09-12T19:15:15.556Z,101069.84
2022-09-12T19:17:39.082Z,101063.84
2022-09-12T19:20:04.914Z,101066.50
2022-09-12T19:22:28.610Z,101072.38
2022-09-12T19:24:52.171Z,101063.91
2022-09-12T19:27:16.151Z,101069.94
2022-09-12T19:29:39.747Z,101065.69
2022-09-12T19:32:03.977Z,101060.72
2022-09-12T19:34:28.124Z,101060.63
2022-09-12T19:36:54.604Z,101056.94
2022-09-12T19:39:19.825Z,101062.66
2022-09-12T19:41:43.689Z,101061.28
2022-09-12T19:44:07.403Z,101056.31
2022-09-12T19:46:30.972Z,101055.91
2022-09-12T19:48:55.444Z,101058.91
2022-09-12T19:51:19.895Z,101056.13
2022-09-12T19:53:45.513Z,101052.81
2022-09-12T19:56:11.893Z,101045.84
2022-09-12T19:58:41.059Z,101045.47
2022-09-12T20:01:11.896Z,101039.78
2022-09-12T20:03:35.514Z,101047.38
2022-09-12T20:06:03.901Z,101043.75
2022-09-12T20:08:27.494Z,101030.50
2022-09-12T20:10:56.859Z,101025.00
2022-09-12T20:13:20.671Z,101022.63
2022-09-12T20:15:44.282Z,101029.03
2022-09-12T20:18:07.884Z,101024.63
2022-09-12T20:20:32.736Z,101031.38
2022-09-12T20:22:56.422Z,101034.38
2022-09-12T20:25:20.690Z,101035.81
2022-09-12T20:27:45.681Z,101035.19
2022-09-12T20:30:11.311Z,101028.19
2022-09-12T20:32:34.948Z,101032.06
2022-09-12T20:34:58.520Z,101020.97
2022-09-12T20:37:22.256Z,101025.53
2022-09-12T20:39:49.013Z,101024.53
2022-09-12T20:42:14.490Z,101027.88
2022-09-12T20:44:39.395Z,101024.44
2022-09-12T20:47:03.020Z,101016.78
2022-09-12T20:49:26.584Z,101020.09
2022-09-12T20:51:50.243Z,101017.13
2022-09-12T20:54:13.815Z,101011.03
2022-09-12T20:56:39.041Z,101016.13
2022-09-12T20:59:03.257Z,101011.59
2022-09-12T21:01:30.050Z,101008.34
2022-09-12T21:03:54.225Z,101009.09
2022-09-12T21:06:18.394Z,101009.38
2022-09-12T21:08:42.153Z,101002.41
2022-09-12T21:11:06.747Z,101000.59
2022-09-12T21:13:30.919Z,101012.13
2022-09-12T21:16:00.123Z,101007.31
2022-09-12T21:18:25.171Z,101005.59
2022-09-12T21:20:53.726Z,100997.34
2022-09-12T21:23:17.289Z,101000.63
2022-09-12T21:25:40.857Z,100995.53
2022-09-12T21:28:04.441Z,100992.41
2022-09-12T21:30:28.080Z,100997.13
2022-09-12T21:32:51.760Z,100993.28
2022-09-12T21:35:17.055Z,100988.19
2022-09-12T21:37:40.701Z,100982.47
2022-09-12T21:40:05.640Z,100988.47
2022-09-12T21:42:29.382Z,100993.19
2022-09-12T21:44:53.023Z,100994.63
2022-09-12T21:47:16.613Z,100985.63
2022-09-12T21:49:40.250Z,100989.34
2022-09-12T21:52:05.675Z,100985.66
2022-09-12T21:54:29.286Z,100983.81
2022-09-12T21:56:53.134Z,100979.97
2022-09-12T21:59:16.713Z,100979.09
2022-09-12T22:01:40.333Z,100973.13
2022-09-12T22:04:04.651Z,100968.72
2022-09-12T22:06:28.243Z,100963.19
2022-09-12T22:08:53.195Z,100968.47
2022-09-12T22:11:19.364Z,100963.47
2022-09-12T22:13:44.014Z,100955.81
2022-09-12T22:16:08.119Z,100948.84
2022-09-12T22:18:33.896Z,100939.88
2022-09-12T22:21:02.804Z,100941.31
2022-09-12T22:23:43.579Z,100950.41
2022-09-12T22:26:09.503Z,100937.19
2022-09-12T22:28:33.453Z,100934.63
2022-09-12T22:30:57.446Z,100931.63
2022-09-12T22:33:21.046Z,100926.25
2022-09-12T22:35:44.637Z,100926.25
2022-09-12T22:38:08.173Z,100914.16
2022-09-12T22:40:31.768Z,100916.28
2022-09-12T22:42:56.673Z,100910.88
2022-09-12T22:45:20.402Z,100911.91
2022-09-12T22:47:43.937Z,100904.22
2022-09-12T22:50:09.077Z,100906.22
2022-09-12T22:52:32.609Z,100902.69
2022-09-12T22:54:56.226Z,100890.72
2022-09-12T22:57:19.978Z,100883.75
2022-09-12T22:59:44.934Z,100881.94
2022-09-12T23:02:08.563Z,100879.81
2022-09-12T23:04:32.905Z,100875.81
2022-09-12T23:06:56.965Z,100871.56
2022-09-12T23:09:20.544Z,100876.94
2022-09-12T23:11:44.113Z,100875.38
2022-09-12T23:14:07.719Z,100867.16
2022-09-12T23:16:32.722Z,100866.84
2022-09-12T23:18:56.634Z,100870.00
2022-09-12T23:21:22.608Z,100874.25
2022-09-12T23:23:46.682Z,100876.81
2022-09-12T23:26:13.788Z,100869.13
2022-09-12T23:28:38.177Z,100871.41
2022-09-12T23:31:01.990Z,100867.31
2022-09-12T23:33:27.419Z,100867.41
2022-09-12T23:35:51.146Z,100861.91
2022-09-12T23:38:14.909Z,100860.31
2022-09-12T23:40:38.457Z,100858.91
2022-09-12T23:43:02.114Z,100855.63
2022-09-12T23:45:25.796Z,100854.34
2022-09-12T23:47:49.442Z,100858.34
2022-09-12T23:50:14.370Z,100859.47
2022-09-12T23:52:37.962Z,100849.09
2022-09-12T23:55:01.465Z,100849.94
2022-09-12T23:57:25.052Z,100841.00
2022-09-12T23:59:48.570Z,100844.69
